Flight Track Log - Related Links

Times and Time Zones

All times are in EDT time to prevent confusion due to time zone crossing. See the DAL1329 flight status page for this flight to view local times or setup timezone preferences in your user account.

Time Position Orientation Groundspeed Altitude Reporting Facility
EDT Latitude Longitude Course Direction KTS MPH feet Rate Location/Type
Fri 02:24:50 PM 27.9667 -82.5500 199° South 172 198 500  Level Tampa TRACON
Fri 02:26:08 PM 27.8833 -82.5833 276° West 256 295 2,900 2,379 Climbing Tampa TRACON
Fri 02:27:39 PM 27.8931 -82.6953 289° West 274 315 7,200 2,861 Climbing Jacksonville Center
Fri 02:28:39 PM 27.9183 -82.7797 342° North 274 315 10,100 2,600 Climbing Jacksonville Center
Fri 02:29:39 PM 27.9956 -82.8081 North 253 291 12,400 2,250 Climbing Jacksonville Center
Fri 02:30:39 PM 28.0811 -82.8033 North 258 297 14,600 2,100 Climbing Jacksonville Center
Fri 02:31:39 PM 28.1728 -82.7961 355° North 293 337 16,600 1,550 Climbing Jacksonville Center
Fri 02:32:39 PM 28.2731 -82.8053 348° North 327 376 17,700 900 Climbing Jacksonville Center
Fri 02:33:39 PM 28.3817 -82.8311 339° North 366 421 18,400 1,000 Climbing Jacksonville Center
Fri 02:34:39 PM 28.4922 -82.8783 341° North 400 460 19,700 1,400 Climbing Jacksonville Center
Fri 02:35:39 PM 28.6069 -82.9233 339° North 418 481 21,200 1,450 Climbing Jacksonville Center
Fri 02:36:39 PM 28.7175 -82.9706 344° North 424 488 22,600 1,200 Climbing Jacksonville Center
Fri 02:37:39 PM 28.8386 -83.0111 341° North 434 499 23,600 1,050 Climbing Jacksonville Center
Fri 02:38:39 PM 28.9594 -83.0586 337° Northwest 445 512 24,700 1,150 Climbing Jacksonville Center
Fri 02:39:39 PM 29.0783 -83.1158 333° Northwest 456 525 25,900 1,400 Climbing Jacksonville Center
Fri 02:40:39 PM 29.1931 -83.1828 332° Northwest 456 525 27,500 1,550 Climbing Jacksonville Center
Fri 02:41:39 PM 29.3014 -83.2475 334° Northwest 446 513 29,000 1,250 Climbing Jacksonville Center
Fri 02:42:39 PM 29.4119 -83.3097 332° Northwest 441 507 30,000 450 Climbing Jacksonville Center
Fri 02:43:39 PM 29.5203 -83.3747 333° Northwest 436 502 29,900 -50 Descending Jacksonville Center
Fri 02:44:39 PM 29.6286 -83.4372 333° Northwest 431 496 29,900 50 Level Jacksonville Center
Fri 02:45:39 PM 29.7389 -83.5025 334° Northwest 431 496 30,000  Climbing Jacksonville Center
Fri 02:46:39 PM 29.8472 -83.5631 333° Northwest 431 496 29,900 -50 Descending Jacksonville Center
Fri 02:47:39 PM 29.9575 -83.6286 334° Northwest 431 496 29,900 50 Level Jacksonville Center
Fri 02:48:39 PM 30.0656 -83.6894 333° Northwest 431 496 30,000 50 Climbing Jacksonville Center
Fri 02:49:39 PM 30.1739 -83.7528 333° Northwest 431 496 30,000 -50 Level Jacksonville Center
Fri 02:50:39 PM 30.2819 -83.8164 333° Northwest 431 496 29,900 -50 Descending Jacksonville Center
Fri 02:51:39 PM 30.3900 -83.8800 332° Northwest 431 496 29,900  Level Jacksonville Center
Fri 02:52:39 PM 30.4981 -83.9461 334° Northwest 431 496 29,900 50 Level Jacksonville Center
Fri 02:53:39 PM 30.6061 -84.0078 333° Northwest 425 489 30,000 50 Climbing Jacksonville Center
Fri 02:54:39 PM 30.7142 -84.0717 333° Northwest 431 496 30,000  Level Jacksonville Center
Fri 02:55:39 PM 30.8325 -84.1408 333° Northwest 431 496 30,000  Level Jacksonville Center
Fri 02:56:39 PM 30.9403 -84.2053 332° Northwest 426 490 30,000  Level Jacksonville Center
Fri 02:57:39 PM 31.0503 -84.2747 334° Northwest 431 496 30,000  Level Jacksonville Center
Fri 02:58:39 PM 31.1583 -84.3369 332° Northwest 431 496 30,000  Level Jacksonville Center
Fri 03:00:17 PM 31.3264 -84.4400 334° Northwest 435 501 30,000  Level Atlanta Center
Fri 03:01:17 PM 31.4453 -84.5086 331° Northwest 440 506 30,000  Level Atlanta Center
Fri 03:02:17 PM 31.5533 -84.5775 333° Northwest 440 506 30,000  Level Atlanta Center
Fri 03:03:17 PM 31.6617 -84.6414 332° Northwest 435 501 30,000  Level Atlanta Center
Fri 03:04:17 PM 31.7697 -84.7081 334° Northwest 429 494 30,000  Level Atlanta Center
Fri 03:05:17 PM 31.8800 -84.7725 331° Northwest 429 494 30,000  Level Atlanta Center
Fri 03:06:17 PM 31.9883 -84.8419 333° Northwest 429 494 30,000  Level Atlanta Center
Fri 03:07:17 PM 32.0964 -84.9067 333° Northwest 429 494 30,000  Level Atlanta Center
Fri 03:08:17 PM 32.2044 -84.9717 333° Northwest 429 494 30,000  Level Atlanta Center
Fri 03:09:17 PM 32.3144 -85.0367 332° Northwest 429 494 30,000  Level Atlanta Center
Fri 03:10:17 PM 32.4203 -85.1042 334° Northwest 429 494 30,000  Level Atlanta Center
Fri 03:11:17 PM 32.5325 -85.1697 332° Northwest 429 494 30,000  Level Atlanta Center
Fri 03:12:17 PM 32.6383 -85.2378 333° Northwest 434 499 30,000  Level Atlanta Center
Fri 03:13:17 PM 32.7461 -85.3033 332° Northwest 427 491 30,000  Level Atlanta Center
Fri 03:14:17 PM 32.8542 -85.3717 332° Northwest 432 497 30,000  Level Atlanta Center
Fri 03:15:17 PM 32.9619 -85.4400 332° Northwest 432 497 30,000  Level Atlanta Center
Fri 03:16:17 PM 33.0736 -85.5114 333° Northwest 437 503 30,000  Level Atlanta Center
Fri 03:17:17 PM 33.1794 -85.5753 332° Northwest 430 495 30,000  Level Atlanta Center
Fri 03:18:17 PM 33.2892 -85.6442 330° Northwest 430 495 30,000  Level Atlanta Center
Fri 03:19:17 PM 33.3864 -85.7106 332° Northwest 436 502 30,000  Level Atlanta Center
Fri 03:20:17 PM 33.4939 -85.7800 333° Northwest 436 502 30,000  Level Atlanta Center
Fri 03:21:17 PM 33.5994 -85.8444 333° Northwest 431 496 30,000 -250 Level Atlanta Center
Fri 03:22:17 PM 33.7092 -85.9117 332° Northwest 431 496 29,500 -500 Descending Atlanta Center
Fri 03:23:17 PM 33.8164 -85.9817 331° Northwest 431 496 29,000 -250 Descending Atlanta Center
Fri 03:24:17 PM 33.9197 -86.0514 332° Northwest 431 496 29,000  Level Atlanta Center
Fri 03:25:17 PM 34.0394 -86.1269 332° Northwest 431 496 29,000  Level Atlanta Center
Fri 03:26:17 PM 34.1489 -86.1975 332° Northwest 431 496 29,000  Level Atlanta Center
Fri 03:27:17 PM 34.2564 -86.2656 332° Northwest 431 496 29,000 500 Level Atlanta Center
Fri 03:28:17 PM 34.3656 -86.3364 332° Northwest 431 496 30,000 500 Climbing Atlanta Center
Fri 03:29:17 PM 34.4728 -86.4047 331° Northwest 431 496 30,000  Level Atlanta Center
Fri 03:30:17 PM 34.5778 -86.4758 331° Northwest 431 496 30,000  Level Atlanta Center
Fri 03:31:17 PM 34.6850 -86.5472 333° Northwest 431 496 30,000  Level Atlanta Center
Fri 03:32:17 PM 34.7961 -86.6164 331° Northwest 431 496 30,000  Level Atlanta Center
Fri 03:33:44 PM 34.9497 -86.7214 331° Northwest 448 516 30,000  Level Memphis Center
Fri 03:34:44 PM 35.0583 -86.7956 332° Northwest 448 516 30,000  Level Memphis Center
Fri 03:35:44 PM 35.1625 -86.8647 332° Northwest 440 506 30,000  Level Memphis Center
Fri 03:36:44 PM 35.2731 -86.9364 331° Northwest 440 506 30,000  Level Memphis Center
Fri 03:37:44 PM 35.3581 -86.9939 331° Northwest 440 506 30,000  Level Memphis Center
Fri 03:38:44 PM 35.4833 -87.0806 326° Northwest 440 506 30,000  Level Memphis Center
Fri 03:39:44 PM 35.5836 -87.1636 323° Northwest 435 501 30,000  Level Memphis Center
Fri 03:40:44 PM 35.6711 -87.2444 322° Northwest 440 506 30,000  Level Memphis Center
Fri 03:41:44 PM 35.7653 -87.3356 323° Northwest 440 506 30,000  Level Memphis Center
Fri 03:42:44 PM 35.8653 -87.4292 323° Northwest 440 506 30,000  Level Memphis Center
Fri 03:43:44 PM 35.9592 -87.5181 323° Northwest 440 506 30,000  Level Memphis Center
Fri 03:44:44 PM 36.0572 -87.6097 322° Northwest 435 501 30,000  Level Memphis Center
Fri 03:45:44 PM 36.1617 -87.7092 323° Northwest 435 501 30,000  Level Memphis Center
Fri 03:46:44 PM 36.2572 -87.7986 324° Northwest 435 501 30,000  Level Memphis Center
Fri 03:47:44 PM 36.3550 -87.8858 322° Northwest 435 501 30,000  Level Memphis Center
Fri 03:48:44 PM 36.4506 -87.9783 327° Northwest 442 509 30,000  Level Memphis Center
Fri 03:49:44 PM 36.5522 -88.0606 332° Northwest 442 509 30,000  Level Memphis Center
Fri 03:50:44 PM 36.6617 -88.1325 332° Northwest 437 503 30,000  Level Memphis Center
Fri 03:51:44 PM 36.7694 -88.2044 333° Northwest 437 503 30,000  Level Memphis Center
Fri 03:52:44 PM 36.8769 -88.2742 332° Northwest 437 503 30,000  Level Memphis Center
Fri 03:53:44 PM 36.9842 -88.3442 331° Northwest 437 503 30,000  Level Memphis Center
Fri 03:54:44 PM 37.0897 -88.4169 332° Northwest 437 503 30,000  Level Memphis Center
Fri 03:55:44 PM 37.1969 -88.4897 332° Northwest 437 503 30,000  Level Memphis Center
Fri 03:57:59 PM 37.4267 -88.6422 332° Northwest 430 495 30,000  Level Kansas City Center
Fri 03:58:59 PM 37.5411 -88.7197 331° Northwest 430 495 30,000  Level Kansas City Center
Fri 03:59:59 PM 37.6403 -88.7883 333° Northwest 437 503 30,000 -500 Level Kansas City Center
Fri 04:00:59 PM 37.7500 -88.8586 331° Northwest 437 503 29,000 -1,000 Descending Kansas City Center
Fri 04:01:59 PM 37.8536 -88.9325 331° Northwest 437 503 28,000 -500 Descending Kansas City Center
Fri 04:02:59 PM 37.9636 -89.0086 332° Northwest 436 502 28,000  Level Kansas City Center
Fri 04:03:59 PM 38.0778 -89.0872 332° Northwest 434 499 28,000  Level Kansas City Center
Fri 04:04:59 PM 38.1875 -89.1611 331° Northwest 434 499 28,000  Level Kansas City Center
Fri 04:05:59 PM 38.2972 -89.2381 332° Northwest 439 505 28,000  Level Kansas City Center
Fri 04:06:59 PM 38.4047 -89.3097 332° Northwest 439 505 28,000  Level Kansas City Center
Fri 04:07:59 PM 38.5144 -89.3844 331° Northwest 439 505 28,000  Level Kansas City Center
Fri 04:08:59 PM 38.6111 -89.4519 331° Northwest 439 505 28,000  Level Kansas City Center
Fri 04:09:59 PM 38.7292 -89.5344 332° Northwest 439 505 28,000  Level Kansas City Center
Fri 04:10:59 PM 38.8258 -89.5997 331° Northwest 434 499 28,000  Level Kansas City Center
Fri 04:11:59 PM 38.9417 -89.6828 331° Northwest 434 499 28,000  Level Kansas City Center
Fri 04:12:59 PM 39.0383 -89.7511 331° Northwest 434 499 28,000  Level Kansas City Center
Fri 04:13:59 PM 39.1542 -89.8347 331° Northwest 434 499 28,000  Level Kansas City Center
Fri 04:14:59 PM 39.2614 -89.9108 331° Northwest 434 499 28,000  Level Kansas City Center
Fri 04:15:59 PM 39.3578 -89.9800 332° Northwest 439 505 28,000  Level Kansas City Center
Fri 04:16:59 PM 39.4736 -90.0614 330° Northwest 433 498 28,000  Level Kansas City Center
Fri 04:17:59 PM 39.5700 -90.1336 331° Northwest 439 505 28,000  Level Kansas City Center
Fri 04:18:59 PM 39.6875 -90.2181 331° Northwest 433 498 28,000  Level Kansas City Center
Fri 04:19:59 PM 39.7925 -90.2928 330° Northwest 433 498 28,000  Level Kansas City Center
Fri 04:20:59 PM 39.8994 -90.3731 331° Northwest 438 504 28,000  Level Kansas City Center
Fri 04:23:20 PM 40.1431 -90.5478 331° Northwest 466 536 28,000  Level Chicago Center
Fri 04:24:20 PM 40.2506 -90.6258 331° Northwest 447 514 28,000  Level Chicago Center
Fri 04:25:20 PM 40.3581 -90.7042 331° Northwest 442 509 28,000  Level Chicago Center
Fri 04:26:20 PM 40.4675 -90.7856 329° Northwest 442 509 28,000  Level Chicago Center
Fri 04:27:20 PM 40.5706 -90.8669 331° Northwest 442 509 28,000  Level Chicago Center
Fri 04:28:20 PM 40.6781 -90.9461 330° Northwest 442 509 28,000  Level Chicago Center
Fri 04:29:20 PM 40.7831 -91.0253 330° Northwest 442 509 28,000  Level Chicago Center
Fri 04:30:20 PM 40.8925 -91.1078 332° Northwest 442 509 28,000  Level Chicago Center
Fri 04:31:20 PM 41.0017 -91.1850 330° Northwest 442 509 28,000  Level Chicago Center
Fri 04:32:20 PM 41.1025 -91.2622 329° Northwest 436 502 28,000  Level Chicago Center
Fri 04:33:20 PM 41.1972 -91.3367 332° Northwest 415 478 28,000  Level Chicago Center
Fri 04:34:20 PM 41.2939 -91.4061 330° Northwest 396 456 28,000  Level Chicago Center
Fri 04:35:20 PM 41.3864 -91.4783 330° Northwest 396 456 28,000  Level Chicago Center
Fri 04:36:20 PM 41.4811 -91.5506 330° Northwest 396 456 28,000  Level Chicago Center
Fri 04:37:20 PM 41.5775 -91.6261 330° Northwest 401 461 28,000  Level Chicago Center
Fri 04:38:20 PM 41.6719 -91.6989 331° Northwest 396 456 28,000  Level Chicago Center
Fri 04:39:20 PM 41.7683 -91.7719 329° Northwest 396 456 28,000  Level Chicago Center
Fri 04:40:20 PM 41.8669 -91.8511 329° Northwest 396 456 28,000  Level Chicago Center
Fri 04:41:20 PM 41.9589 -91.9244 330° Northwest 396 456 28,000  Level Chicago Center
Fri 04:42:20 PM 42.0553 -91.9983 329° Northwest 396 456 28,000  Level Chicago Center
Fri 04:43:20 PM 42.1514 -92.0750 329° Northwest 396 456 28,000  Level Chicago Center
Fri 04:44:20 PM 42.2456 -92.1519 329° Northwest 396 456 28,000  Level Chicago Center
Fri 04:46:43 PM 42.4767 -92.3394 329° Northwest 409 471 28,000  Level Minneapolis Center
Fri 04:47:43 PM 42.5817 -92.4250 326° Northwest 422 486 28,000  Level Minneapolis Center
Fri 04:48:43 PM 42.6822 -92.5164 327° Northwest 433 498 28,000  Level Minneapolis Center
Fri 04:49:43 PM 42.7872 -92.6108 325° Northwest 446 513 28,000  Level Minneapolis Center
Fri 04:50:43 PM 42.8878 -92.7083 327° Northwest 446 513 28,000  Level Minneapolis Center
Fri 04:51:43 PM 42.9903 -92.8008 324° Northwest 446 513 28,000  Level Minneapolis Center
Fri 04:52:43 PM 43.0908 -92.8992 327° Northwest 446 513 28,000  Level Minneapolis Center
Fri 04:53:43 PM 43.1933 -92.9922 325° Northwest 446 513 28,000  Level Minneapolis Center
Fri 04:54:43 PM 43.2936 -93.0883 326° Northwest 446 513 28,000 -600 Level Minneapolis Center
Fri 04:55:43 PM 43.3939 -93.1819 326° Northwest 446 513 26,800 -2,100 Descending Minneapolis Center
Fri 04:56:43 PM 43.4939 -93.2758 359° North 446 513 23,800 -2,700 Descending Minneapolis Center
Fri 04:57:43 PM 43.6292 -93.2783 North 432 497 21,400 -2,700 Descending Minneapolis Center
Fri 04:58:43 PM 43.7458 -93.2667 North 426 490 18,400 -2,700 Descending Minneapolis Center
Fri 04:59:43 PM 43.8561 -93.2575 North 406 467 16,000 -2,340 Descending Minneapolis Center
Fri 05:00:23 PM 43.9272 -93.2475 North 396 456 14,500 -2,325 Descending FAA TRACON SMA TRACON (SMA)
Fri 05:01:03 PM 44.0014 -93.2386 North 384 442 12,900 -2,444 Descending FAA TRACON SMA TRACON (SMA)
Fri 05:01:44 PM 44.0742 -93.2344 North 377 434 11,200 -2,000 Descending FAA TRACON SMA TRACON (SMA)
Fri 05:02:24 PM 44.1378 -93.2278 North 369 425 10,200 -825 Descending FAA TRACON SMA TRACON (SMA)
Fri 05:03:04 PM 44.2017 -93.2219 North 324 373 10,100 -152 Descending FAA TRACON SMA TRACON (SMA)
Fri 05:03:43 PM 44.2533 -93.2158 North 302 348 10,000 -76 Descending FAA TRACON SMA TRACON (SMA)
Fri 05:04:23 PM 44.3117 -93.2108 North 304 350 10,000  Level FAA TRACON SMA TRACON (SMA)
Fri 05:05:03 PM 44.3700 -93.2042 North 303 349 10,000 -450 Level FAA TRACON SMA TRACON (SMA)
Fri 05:05:43 PM 44.4208 -93.1925 10° North 302 348 9,400 -815 Descending FAA TRACON SMA TRACON (SMA)
Fri 05:06:24 PM 44.4739 -93.1797 10° North 275 316 8,900 -963 Descending FAA TRACON SMA TRACON (SMA)
Fri 05:07:04 PM 44.5211 -93.1686 North 243 280 8,100 -1,275 Descending FAA TRACON SMA TRACON (SMA)
Fri 05:07:44 PM 44.5658 -93.1617 354° North 231 266 7,200 -1,125 Descending FAA TRACON SMA TRACON (SMA)
Fri 05:08:24 PM 44.6011 -93.1672 350° North 205 236 6,600 -1,215 Descending FAA TRACON SMA TRACON (SMA)
Fri 05:09:03 PM 44.6364 -93.1761 349° North 184 212 5,600 -1,443 Descending FAA TRACON SMA TRACON (SMA)
Fri 05:09:43 PM 44.6653 -93.1839 350° North 169 194 4,700 -1,050 Descending FAA TRACON SMA TRACON (SMA)
Fri 05:10:23 PM 44.6956 -93.1917 349° North 158 182 4,200 -815 Descending FAA TRACON SMA TRACON (SMA)
Fri 05:11:04 PM 44.7256 -93.1997 349° North 158 182 3,600 -889 Descending FAA TRACON SMA TRACON (SMA)
Fri 05:11:44 PM 44.7561 -93.2081 350° North 162 186 3,000 -825 Descending FAA TRACON SMA TRACON (SMA)
Fri 05:12:24 PM 44.7806 -93.2142 349° North 143 165 2,500 -835 Descending FAA TRACON SMA TRACON (SMA)
Fri 05:13:03 PM 44.8069 -93.2211 350° North 138 159 1,900 -759 Descending FAA TRACON SMA TRACON (SMA)
Fri 05:13:43 PM 44.8306 -93.2269 349° North 140 161 1,500 -675 Descending FAA TRACON SMA TRACON (SMA)
Fri 05:14:23 PM 44.8572 -93.2342 349° North 140 161 1,000 -750 Descending FAA TRACON SMA TRACON (SMA)

Login

Don't have an account? Register now (free) for customized features, flight alerts, and more!